Time,TemperatureF,DewpointF,PressureIn,WindDirection,WindDirectionDegrees,WindSpeedMPH,WindSpeedGustMPH,Humidity,HourlyPrecipIn,Conditions,Clouds,dailyrainin,SoftwareType,DateUTC
2013-03-15 00:01:00,45.8,45.0,30.12,NNW,346,0.0,0.0,97,0.00,,---,0.00,VWS V14.01,2013-03-15 07:01:00,
2013-03-15 00:08:00,45.7,44.9,30.12,NNW,346,0.0,0.0,97,0.00,,---,0.00,VWS V14.01,2013-03-15 07:08:00,
2013-03-15 00:21:00,45.5,44.7,30.12,NNW,347,0.0,0.0,97,0.00,,---,0.00,VWS V14.01,2013-03-15 07:21:00,
2013-03-15 00:32:00,45.3,44.5,30.12,NNW,346,0.0,0.0,97,0.00,,---,0.00,VWS V14.01,2013-03-15 07:32:00,
2013-03-15 00:38:00,45.1,44.3,30.12,NNW,347,0.0,0.0,97,0.00,,---,0.00,VWS V14.01,2013-03-15 07:38:00,
2013-03-15 00:51:00,44.9,44.1,30.13,NNW,346,0.0,0.0,97,0.00,,---,0.00,VWS V14.01,2013-03-15 07:51:00,
2013-03-15 01:01:00,44.7,43.9,30.13,NNW,346,0.0,0.0,97,0.00,,---,0.00,VWS V14.01,2013-03-15 08:01:00,
2013-03-15 01:08:00,44.6,43.8,30.14,NNW,346,0.0,0.0,97,0.00,,---,0.00,VWS V14.01,2013-03-15 08:08:00,
2013-03-15 01:21:00,44.1,43.3,30.12,NNW,346,0.0,0.0,97,0.00,,---,0.00,VWS V14.01,2013-03-15 08:21:00,
2013-03-15 01:31:00,43.8,43.0,30.13,NNW,346,0.0,0.0,97,0.00,,---,0.00,VWS V14.01,2013-03-15 08:31:00,
2013-03-15 01:38:00,43.7,43.2,30.13,NNW,346,0.0,0.0,98,0.00,,---,0.00,VWS V14.01,2013-03-15 08:38:00,
2013-03-15 01:51:00,43.6,43.1,30.13,NNW,346,0.0,0.0,98,0.00,,---,0.00,VWS V14.01,2013-03-15 08:51:00,
2013-03-15 02:01:00,43.5,43.0,30.12,NNW,345,0.0,0.0,98,0.00,,---,0.00,VWS V14.01,2013-03-15 09:01:00,
2013-03-15 02:08:00,43.4,42.9,30.12,NNW,346,0.0,0.0,98,0.00,,---,0.00,VWS V14.01,2013-03-15 09:08:00,
2013-03-15 02:21:00,43.2,42.7,30.12,NNW,346,0.0,0.0,98,0.00,,---,0.00,VWS V14.01,2013-03-15 09:21:00,
2013-03-15 02:31:00,43.3,42.8,30.12,NNW,346,0.0,0.0,98,0.00,,---,0.00,VWS V14.01,2013-03-15 09:31:00,
2013-03-15 02:38:00,43.3,42.8,30.13,NNW,346,0.0,0.0,98,0.00,,---,0.00,VWS V14.01,2013-03-15 09:38:00,
2013-03-15 02:51:00,43.2,42.7,30.14,NNW,346,0.0,0.0,98,0.00,,---,0.00,VWS V14.01,2013-03-15 09:51:00,
2013-03-15 03:01:00,43.0,42.5,30.14,NNW,346,0.0,0.0,98,0.00,,---,0.00,VWS V14.01,2013-03-15 10:01:00,
2013-03-15 03:08:00,42.7,42.2,30.14,NNW,346,0.0,0.0,98,0.00,,---,0.00,VWS V14.01,2013-03-15 10:08:00,
2013-03-15 03:21:00,42.6,42.1,30.13,NNW,346,0.0,0.0,98,0.00,,---,0.00,VWS V14.01,2013-03-15 10:21:00,
2013-03-15 03:31:00,42.4,41.9,30.12,NNW,346,0.0,0.0,98,0.00,,---,0.00,VWS V14.01,2013-03-15 10:31:00,
2013-03-15 03:38:00,42.3,41.8,30.12,NNW,346,0.0,0.0,98,0.00,,---,0.00,VWS V14.01,2013-03-15 10:38:00,
2013-03-15 03:51:00,42.3,41.8,30.12,NNW,346,0.0,0.0,98,0.00,,---,0.00,VWS V14.01,2013-03-15 10:51:00,
2013-03-15 04:01:00,42.1,41.6,30.11,NNW,346,0.0,0.0,98,0.00,,---,0.00,VWS V14.01,2013-03-15 11:01:00,
2013-03-15 04:08:00,41.9,41.4,30.11,NNW,346,0.0,0.0,98,0.00,,---,0.00,VWS V14.01,2013-03-15 11:08:00,
2013-03-15 04:21:00,41.9,41.4,30.11,NNW,347,0.0,0.0,98,0.00,,---,0.00,VWS V14.01,2013-03-15 11:21:00,
2013-03-15 04:31:00,41.8,41.3,30.11,NNW,346,0.0,0.0,98,0.00,,---,0.00,VWS V14.01,2013-03-15 11:31:00,
2013-03-15 04:38:00,41.8,41.3,30.10,NNW,347,0.0,0.0,98,0.00,,---,0.00,VWS V14.01,2013-03-15 11:38:00,
2013-03-15 04:51:00,41.8,41.3,30.10,NNW,346,0.0,0.0,98,0.00,,---,0.00,VWS V14.01,2013-03-15 11:51:00,
2013-03-15 05:01:00,41.7,41.2,30.10,NNW,346,0.0,0.0,98,0.00,,---,0.00,VWS V14.01,2013-03-15 12:01:00,
2013-03-15 05:08:00,41.5,41.0,30.10,NNW,346,0.0,0.0,98,0.00,,---,0.00,VWS V14.01,2013-03-15 12:08:00,
2013-03-15 05:22:00,41.6,41.3,30.10,NNW,347,0.0,0.0,99,0.00,,---,0.00,VWS V14.01,2013-03-15 12:22:00,
2013-03-15 05:31:00,41.5,41.0,30.11,NNW,346,0.0,0.0,98,0.00,,---,0.00,VWS V14.01,2013-03-15 12:31:00,
2013-03-15 05:38:00,41.4,40.9,30.11,NNW,346,0.0,0.0,98,0.00,,---,0.00,VWS V14.01,2013-03-15 12:38:00,
2013-03-15 05:51:00,41.2,40.9,30.11,NNW,346,0.0,0.0,99,0.00,,---,0.00,VWS V14.01,2013-03-15 12:51:00,
2013-03-15 06:01:00,41.2,40.9,30.11,NNW,346,0.0,0.0,99,0.00,,---,0.00,VWS V14.01,2013-03-15 13:01:00,
2013-03-15 06:08:00,41.2,40.9,30.11,NNW,347,0.0,0.0,99,0.00,,---,0.00,VWS V14.01,2013-03-15 13:08:00,
2013-03-15 06:21:00,41.2,40.9,30.12,NNW,346,0.0,0.0,99,0.00,,---,0.00,VWS V14.01,2013-03-15 13:21:00,
2013-03-15 06:31:00,41.3,41.0,30.11,NNW,346,0.0,0.0,99,0.00,,---,0.00,VWS V14.01,2013-03-15 13:31:00,
2013-03-15 06:38:00,41.4,41.1,30.11,NNW,346,0.0,0.0,99,0.00,,---,0.00,VWS V14.01,2013-03-15 13:38:00,
2013-03-15 06:53:00,41.4,41.1,30.11,NNW,346,0.0,0.0,99,0.00,,---,0.00,VWS V14.01,2013-03-15 13:53:00,
2013-03-15 07:01:00,41.3,41.0,30.11,North,350,0.0,1.0,99,0.00,,---,0.00,VWS V14.01,2013-03-15 14:01:00,
2013-03-15 07:08:00,41.3,41.0,30.12,North,350,0.0,0.0,99,0.00,,---,0.00,VWS V14.01,2013-03-15 14:08:00,
2013-03-15 07:21:00,41.3,41.0,30.11,North,350,0.0,1.0,99,0.00,,---,0.00,VWS V14.01,2013-03-15 14:21:00,
2013-03-15 07:31:00,41.4,41.1,30.11,NE,46,0.0,1.0,99,0.00,,---,0.00,VWS V14.01,2013-03-15 14:31:00,
2013-03-15 07:38:00,41.4,41.1,30.12,NE,44,0.0,0.0,99,0.00,,---,0.00,VWS V14.01,2013-03-15 14:38:00,
2013-03-15 07:51:00,41.5,41.2,30.12,NE,44,0.0,0.0,99,0.00,,---,0.00,VWS V14.01,2013-03-15 14:51:00,
2013-03-15 08:01:00,41.7,41.4,30.11,NE,44,0.0,0.0,99,0.00,,---,0.00,VWS V14.01,2013-03-15 15:01:00,
2013-03-15 08:08:00,41.7,41.4,30.11,NE,43,0.0,0.0,99,0.00,,---,0.00,VWS V14.01,2013-03-15 15:08:00,
2013-03-15 08:21:00,42.0,41.7,30.12,NE,44,0.0,0.0,99,0.00,,---,0.00,VWS V14.01,2013-03-15 15:21:00,
2013-03-15 08:31:00,41.8,41.5,30.12,NE,43,0.0,0.0,99,0.00,,---,0.00,VWS V14.01,2013-03-15 15:31:00,
2013-03-15 08:38:00,41.9,41.6,30.12,NE,43,0.0,0.0,99,0.00,,---,0.00,VWS V14.01,2013-03-15 15:38:00,
2013-03-15 08:51:00,42.3,42.0,30.12,NE,44,0.0,0.0,99,0.00,,---,0.00,VWS V14.01,2013-03-15 15:51:00,
2013-03-15 09:02:00,42.7,42.4,30.13,NE,43,0.0,0.0,99,0.00,,---,0.00,VWS V14.01,2013-03-15 16:02:00,
2013-03-15 09:08:00,42.9,42.6,30.13,NE,44,0.0,0.0,99,0.00,,---,0.00,VWS V14.01,2013-03-15 16:08:00,
2013-03-15 09:21:00,43.4,43.1,30.13,NE,43,0.0,0.0,99,0.00,,---,0.00,VWS V14.01,2013-03-15 16:21:00,
2013-03-15 09:31:00,44.0,43.7,30.13,NE,44,0.0,0.0,99,0.00,,---,0.00,VWS V14.01,2013-03-15 16:31:00,
2013-03-15 09:38:00,44.4,44.1,30.13,NE,44,0.0,0.0,99,0.00,,---,0.00,VWS V14.01,2013-03-15 16:38:00,
2013-03-15 09:51:00,45.2,44.9,30.13,NE,43,0.0,0.0,99,0.00,,---,0.00,VWS V14.01,2013-03-15 16:51:00,
2013-03-15 10:01:00,45.9,45.6,30.13,NE,43,0.0,0.0,99,0.00,,---,0.00,VWS V14.01,2013-03-15 17:01:00,
2013-03-15 10:08:00,46.4,46.1,30.13,NE,44,0.0,0.0,99,0.00,,---,0.00,VWS V14.01,2013-03-15 17:08:00,
2013-03-15 10:21:00,47.4,47.1,30.13,NE,44,0.0,0.0,99,0.00,,---,0.00,VWS V14.01,2013-03-15 17:21:00,
2013-03-15 10:31:00,47.9,47.1,30.13,NE,43,0.0,0.0,97,0.00,,---,0.00,VWS V14.01,2013-03-15 17:31:00,
2013-03-15 10:38:00,48.3,47.2,30.13,NE,44,0.0,0.0,96,0.00,,---,0.00,VWS V14.01,2013-03-15 17:38:00,
2013-03-15 10:51:00,49.3,47.3,30.13,NE,44,0.0,0.0,93,0.00,,---,0.00,VWS V14.01,2013-03-15 17:51:00,
2013-03-15 11:01:00,50.4,47.3,30.12,NE,43,0.0,0.0,89,0.00,,---,0.00,VWS V14.01,2013-03-15 18:01:00,
2013-03-15 11:08:00,51.0,47.9,30.12,NE,43,0.0,0.0,89,0.00,,---,0.00,VWS V14.01,2013-03-15 18:08:00,
2013-03-15 11:21:00,52.7,48.0,30.12,NE,42,0.0,0.0,84,0.00,,---,0.00,VWS V14.01,2013-03-15 18:21:00,
2013-03-15 11:31:00,54.5,47.1,30.12,NE,42,0.0,0.0,76,0.00,,---,0.00,VWS V14.01,2013-03-15 18:31:00,
2013-03-15 11:38:00,55.6,48.2,30.11,NE,42,0.0,0.0,76,0.00,,---,0.00,VWS V14.01,2013-03-15 18:38:00,
2013-03-15 11:51:00,57.1,48.9,30.11,North,352,0.0,0.0,74,0.00,,---,0.00,VWS V14.01,2013-03-15 18:51:00,
2013-03-15 12:01:00,57.9,48.9,30.10,North,352,0.0,0.0,72,0.00,,---,0.00,VWS V14.01,2013-03-15 19:01:00,
2013-03-15 12:08:00,58.6,49.2,30.10,North,351,0.0,0.0,71,0.00,,---,0.00,VWS V14.01,2013-03-15 19:08:00,
2013-03-15 12:21:00,59.7,49.1,30.09,NNW,338,0.0,1.0,68,0.00,,---,0.00,VWS V14.01,2013-03-15 19:21:00,
2013-03-15 12:31:00,60.9,49.0,30.09,NNW,339,0.0,1.0,65,0.00,,---,0.00,VWS V14.01,2013-03-15 19:31:00,
2013-03-15 12:39:00,61.8,49.1,30.09,NNW,327,0.0,1.0,63,0.00,,---,0.00,VWS V14.01,2013-03-15 19:39:00,
2013-03-15 12:51:00,63.1,50.3,30.08,WNW,290,0.0,1.0,63,0.00,,---,0.00,VWS V14.01,2013-03-15 19:51:00,
2013-03-15 13:02:00,63.7,51.7,30.08,WNW,290,0.0,0.0,65,0.00,,---,0.00,VWS V14.01,2013-03-15 20:02:00,
2013-03-15 13:09:00,64.3,52.7,30.08,WNW,290,0.0,0.0,66,0.00,,---,0.00,VWS V14.01,2013-03-15 20:09:00,
2013-03-15 13:21:00,65.2,53.1,30.08,WNW,290,0.0,0.0,65,0.00,,---,0.00,VWS V14.01,2013-03-15 20:21:00,
2013-03-15 13:31:00,65.8,54.1,30.07,WNW,290,0.0,0.0,66,0.00,,---,0.00,VWS V14.01,2013-03-15 20:31:00,
2013-03-15 13:39:00,66.2,53.2,30.08,WNW,290,0.0,0.0,63,0.00,,---,0.00,VWS V14.01,2013-03-15 20:39:00,
2013-03-15 13:51:00,67.6,53.7,30.08,NNE,18,1.0,3.0,61,0.00,,---,0.00,VWS V14.01,2013-03-15 20:51:00,
2013-03-15 14:01:00,68.2,52.4,30.07,NNW,331,0.0,2.0,57,0.00,,---,0.00,VWS V14.01,2013-03-15 21:01:00,
2013-03-15 14:09:00,68.4,53.5,30.07,North,353,0.0,2.0,59,0.00,,---,0.00,VWS V14.01,2013-03-15 21:09:00,
2013-03-15 14:21:00,68.2,52.8,30.08,SSW,203,0.0,2.0,58,0.00,,---,0.00,VWS V14.01,2013-03-15 21:21:00,
2013-03-15 14:31:00,67.9,53.5,30.08,North,4,0.0,4.0,60,0.00,,---,0.00,VWS V14.01,2013-03-15 21:31:00,
2013-03-15 14:39:00,67.1,53.2,30.08,NNE,32,0.0,3.0,61,0.00,,---,0.00,VWS V14.01,2013-03-15 21:39:00,
2013-03-15 14:51:00,65.6,53.1,30.07,NW,315,0.0,2.0,64,0.00,,---,0.00,VWS V14.01,2013-03-15 21:51:00,
2013-03-15 15:09:00,63.9,53.1,30.07,NW,315,0.0,0.0,68,0.00,,---,0.00,VWS V14.01,2013-03-15 22:09:00,
2013-03-15 15:21:00,63.7,54.1,30.06,NNE,28,1.0,1.0,71,0.00,,---,0.00,VWS V14.01,2013-03-15 22:21:00,
2013-03-15 15:31:00,63.8,54.2,30.06,North,2,0.0,1.0,71,0.00,,---,0.00,VWS V14.01,2013-03-15 22:31:00,
2013-03-15 15:39:00,63.3,53.7,30.05,WNW,290,0.0,1.0,71,0.00,,---,0.00,VWS V14.01,2013-03-15 22:39:00,
2013-03-15 15:51:00,62.8,54.0,30.05,NW,314,0.0,1.0,73,0.00,,---,0.00,VWS V14.01,2013-03-15 22:51:00,
2013-03-15 16:01:00,62.9,53.7,30.05,NW,314,0.0,1.0,72,0.00,,---,0.00,VWS V14.01,2013-03-15 23:01:00,
2013-03-15 16:09:00,63.6,55.9,30.05,NW,318,0.0,0.0,76,0.00,,---,0.00,VWS V14.01,2013-03-15 23:09:00,
2013-03-15 16:21:00,63.2,54.8,30.05,NNE,30,0.0,1.0,74,0.00,,---,0.00,VWS V14.01,2013-03-15 23:21:00,
2013-03-15 16:31:00,62.0,53.6,30.05,North,358,0.0,0.0,74,0.00,,---,0.00,VWS V14.01,2013-03-15 23:31:00,
2013-03-15 16:39:00,61.7,53.7,30.05,North,360,0.0,1.0,75,0.00,,---,0.00,VWS V14.01,2013-03-15 23:39:00,
2013-03-15 16:51:00,60.4,53.2,30.05,West,272,0.0,1.0,77,0.00,,---,0.00,VWS V14.01,2013-03-15 23:51:00,
2013-03-15 17:01:00,59.7,52.8,30.05,West,281,0.0,1.0,78,0.00,,---,0.00,VWS V14.01,2013-03-16 00:01:00,
2013-03-15 17:09:00,59.3,52.4,30.05,WNW,290,0.0,0.0,78,0.00,,---,0.00,VWS V14.01,2013-03-16 00:09:00,
2013-03-15 17:21:00,59.0,52.8,30.05,NW,320,0.0,0.0,80,0.00,,---,0.00,VWS V14.01,2013-03-16 00:21:00,
2013-03-15 17:31:00,58.8,52.6,30.05,NNW,343,0.0,1.0,80,0.00,,---,0.00,VWS V14.01,2013-03-16 00:31:00,
2013-03-15 17:39:00,58.5,52.3,30.05,NNW,340,0.0,0.0,80,0.00,,---,0.00,VWS V14.01,2013-03-16 00:39:00,
2013-03-15 17:51:00,58.2,52.4,30.04,WNW,287,0.0,1.0,81,0.00,,---,0.00,VWS V14.01,2013-03-16 00:51:00,
2013-03-15 18:01:00,58.0,52.2,30.04,WNW,295,0.0,0.0,81,0.00,,---,0.00,VWS V14.01,2013-03-16 01:01:00,
2013-03-15 18:09:00,57.8,52.0,30.04,WNW,295,0.0,1.0,81,0.00,,---,0.00,VWS V14.01,2013-03-16 01:09:00,
2013-03-15 18:21:00,57.7,52.2,30.04,NNW,331,0.0,1.0,82,0.00,,---,0.00,VWS V14.01,2013-03-16 01:21:00,
2013-03-15 18:32:00,58.0,52.2,30.04,NW,311,0.0,2.0,81,0.00,,---,0.00,VWS V14.01,2013-03-16 01:32:00,
2013-03-15 18:39:00,58.4,51.6,30.04,WNW,300,0.0,1.0,78,0.00,,---,0.00,VWS V14.01,2013-03-16 01:39:00,
2013-03-15 18:51:00,58.5,51.7,30.04,NW,310,0.0,0.0,78,0.00,,---,0.00,VWS V14.01,2013-03-16 01:51:00,
2013-03-15 19:01:00,58.4,51.9,30.04,NW,310,0.0,1.0,79,0.00,,---,0.00,VWS V14.01,2013-03-16 02:01:00,
2013-03-15 19:09:00,58.2,51.7,30.03,NW,311,0.0,1.0,79,0.00,,---,0.00,VWS V14.01,2013-03-16 02:09:00,
2013-03-15 19:22:00,58.1,51.3,30.03,NNW,339,0.0,0.0,78,0.00,,---,0.00,VWS V14.01,2013-03-16 02:22:00,
2013-03-15 19:31:00,57.8,51.3,30.04,NNW,339,0.0,0.0,79,0.00,,---,0.00,VWS V14.01,2013-03-16 02:31:00,
2013-03-15 19:39:00,57.6,50.8,30.04,NNW,327,0.0,1.0,78,0.00,,---,0.00,VWS V14.01,2013-03-16 02:39:00,
2013-03-15 19:51:00,56.8,49.3,30.04,NNW,328,0.0,1.0,76,0.00,,---,0.00,VWS V14.01,2013-03-16 02:51:00,
2013-03-15 20:01:00,55.7,50.9,30.04,North,7,1.0,1.0,84,0.00,,---,0.00,VWS V14.01,2013-03-16 03:01:00,
2013-03-15 20:09:00,55.2,51.1,30.04,North,7,0.0,0.0,86,0.00,,---,0.00,VWS V14.01,2013-03-16 03:09:00,
2013-03-15 20:21:00,54.7,50.9,30.04,North,7,0.0,0.0,87,0.00,,---,0.00,VWS V14.01,2013-03-16 03:21:00,
2013-03-15 20:31:00,54.1,50.6,30.05,North,7,0.0,0.0,88,0.00,,---,0.00,VWS V14.01,2013-03-16 03:31:00,
2013-03-15 20:39:00,53.6,50.4,30.05,North,7,0.0,0.0,89,0.00,,---,0.00,VWS V14.01,2013-03-16 03:39:00,
2013-03-15 20:51:00,52.9,50.0,30.05,NW,324,0.0,0.0,90,0.00,,---,0.00,VWS V14.01,2013-03-16 03:51:00,
2013-03-15 21:01:00,52.4,49.5,30.05,NW,324,0.0,0.0,90,0.00,,---,0.00,VWS V14.01,2013-03-16 04:01:00,
2013-03-15 21:09:00,51.9,49.0,30.05,NW,324,0.0,0.0,90,0.00,,---,0.00,VWS V14.01,2013-03-16 04:09:00,
2013-03-15 21:11:00,51.7,48.8,30.05,NW,324,0.0,0.0,90,0.00,,---,0.00,VWS V14.01,2013-03-16 04:11:00,
2013-03-15 21:22:00,51.0,48.5,30.06,NW,323,0.0,1.0,91,0.00,,---,0.00,VWS V14.01,2013-03-16 04:22:00,
2013-03-15 21:31:00,50.4,48.2,30.07,NW,324,0.0,0.0,92,0.00,,---,0.00,VWS V14.01,2013-03-16 04:31:00,
2013-03-15 21:39:00,50.0,48.0,30.07,NW,322,0.0,1.0,93,0.00,,---,0.00,VWS V14.01,2013-03-16 04:39:00,
2013-03-15 21:51:00,49.5,47.5,30.07,North,354,0.0,1.0,93,0.00,,---,0.00,VWS V14.01,2013-03-16 04:51:00,
2013-03-15 22:01:00,49.2,47.5,30.07,North,354,0.0,0.0,94,0.00,,---,0.00,VWS V14.01,2013-03-16 05:01:00,
2013-03-15 22:09:00,49.0,47.3,30.07,North,354,0.0,0.0,94,0.00,,---,0.00,VWS V14.01,2013-03-16 05:09:00,
2013-03-15 22:21:00,48.5,47.1,30.07,North,354,0.0,0.0,95,0.00,,---,0.00,VWS V14.01,2013-03-16 05:21:00,
2013-03-15 22:31:00,48.3,46.9,30.07,North,354,0.0,0.0,95,0.00,,---,0.00,VWS V14.01,2013-03-16 05:31:00,
2013-03-15 22:39:00,48.1,47.0,30.08,North,354,0.0,0.0,96,0.00,,---,0.00,VWS V14.01,2013-03-16 05:39:00,
2013-03-15 22:52:00,47.8,46.7,30.08,NNW,339,0.0,0.0,96,0.00,,---,0.00,VWS V14.01,2013-03-16 05:52:00,
2013-03-15 23:01:00,47.6,46.8,30.08,NNW,339,0.0,0.0,97,0.00,,---,0.00,VWS V14.01,2013-03-16 06:01:00,
2013-03-15 23:09:00,47.5,46.7,30.08,NNW,339,0.0,0.0,97,0.00,,---,0.00,VWS V14.01,2013-03-16 06:09:00,
2013-03-15 23:21:00,47.2,46.4,30.08,NNW,339,0.0,0.0,97,0.00,,---,0.00,VWS V14.01,2013-03-16 06:21:00,
2013-03-15 23:31:00,47.0,46.2,30.08,NNW,338,0.0,0.0,97,0.00,,---,0.00,VWS V14.01,2013-03-16 06:31:00,
2013-03-15 23:39:00,46.9,46.1,30.07,NNW,339,0.0,0.0,97,0.00,,---,0.00,VWS V14.01,2013-03-16 06:39:00,
2013-03-15 23:54:00,46.7,45.9,30.07,NNW,339,0.0,0.0,97,0.00,,---,0.00,VWS V14.01,2013-03-16 06:54:00,